Terminal Aerodrome Forecast
Issued by NWS

Home | Current Version | Previous Version | Text Only | Print | Product List | Glossary On
Versions: 1 2 3 4 5 6 7 8 9 10 11 12 13 14 15 16 17 18 19 20 21 22 23 24 25 26 27 28 29 30 31 32 33 34 35 36 37
000
FTUS41 KOKX 162300
TAFGON
TAF
KGON 162322Z 1700/1724 36011KT P6SM SKC
     FM170300 04008KT P6SM SKC
     FM171000 05010KT P6SM FEW030 SCT250
     FM171500 08015KT P6SM FEW040 SCT250=

USA.gov is the U.S. government's official web portal to all federal, state and local government web resources and services.